Time;durP1;ratioP1;P1;durP2;ratioP2;P2;SDS_P1;SDS_P2;PMS_P1;PMS_P2;Temp;Humidity;BMP_temperature;BMP_pressure;BME280_temperature;BME280_humidity;BME280_pressure;Samples;Min_cycle;Max_cycle;Signal;HPM_P1;HPM_P2
2022/01/08 00:01:28;;;;;;;23.23;11.52;;;1.70;99.90;;;;;;5052662;28;20128;-72
2022/01/08 00:03:54;;;;;;;23.27;12.48;;;1.70;99.90;;;;;;5056425;28;20040;-74
2022/01/08 00:06:20;;;;;;;26.60;11.60;;;1.80;99.90;;;;;;5057166;28;20047;-75
2022/01/08 00:08:46;;;;;;;21.40;12.23;;;1.80;99.90;;;;;;5056664;28;20040;-73
2022/01/08 00:11:17;;;;;;;21.63;11.95;;;1.80;99.90;;;;;;5056522;28;20390;-72
2022/01/08 00:13:43;;;;;;;19.30;10.77;;;1.80;99.90;;;;;;5056412;28;20048;-75
2022/01/08 00:16:09;;;;;;;29.15;12.60;;;1.90;99.90;;;;;;5057218;28;20048;-73
2022/01/08 00:18:34;;;;;;;24.60;11.93;;;1.90;99.90;;;;;;5039619;28;20048;-72
2022/01/08 00:21:00;;;;;;;22.25;12.18;;;1.90;99.90;;;;;;5056466;28;20115;-76
2022/01/08 00:23:26;;;;;;;26.90;12.82;;;1.90;99.90;;;;;;5040051;28;20048;-72
2022/01/08 00:25:52;;;;;;;25.92;12.75;;;1.90;99.90;;;;;;5056293;28;20040;-72
2022/01/08 00:28:17;;;;;;;23.33;11.77;;;1.90;99.90;;;;;;5035832;28;20048;-72
2022/01/08 00:30:44;;;;;;;26.67;12.50;;;1.90;99.90;;;;;;5034507;28;20475;-73
2022/01/08 00:33:10;;;;;;;21.65;12.65;;;1.90;99.90;;;;;;5056796;28;20048;-72
2022/01/08 00:35:36;;;;;;;25.95;13.27;;;2.00;99.90;;;;;;5039876;28;20466;-72
2022/01/08 00:38:02;;;;;;;23.98;12.60;;;2.00;99.90;;;;;;5056246;28;20028;-72
2022/01/08 00:40:28;;;;;;;23.75;12.95;;;2.00;99.90;;;;;;5055266;28;20041;-74
2022/01/08 00:42:55;;;;;;;25.98;13.57;;;2.00;99.90;;;;;;5055959;28;20036;-72
2022/01/08 00:45:21;;;;;;;25.05;12.80;;;2.00;99.90;;;;;;5056707;28;20036;-73
2022/01/08 00:47:46;;;;;;;25.27;14.20;;;2.00;99.90;;;;;;5039699;28;20048;-73
2022/01/08 00:50:12;;;;;;;31.65;14.05;;;2.00;99.90;;;;;;5052523;28;20098;-72
2022/01/08 00:52:40;;;;;;;26.50;13.18;;;2.10;99.90;;;;;;5032528;28;20110;-72
2022/01/08 00:55:06;;;;;;;27.48;14.30;;;2.00;99.90;;;;;;5035935;28;20075;-74
2022/01/08 00:57:32;;;;;;;25.85;14.07;;;2.00;99.90;;;;;;5035686;28;20045;-72
2022/01/08 00:59:57;;;;;;;26.75;14.90;;;2.00;99.90;;;;;;5032149;28;20054;-72
2022/01/08 01:02:23;;;;;;;30.65;15.48;;;2.00;99.90;;;;;;5016219;28;20061;-75
2022/01/08 01:04:49;;;;;;;25.55;14.27;;;2.00;99.90;;;;;;5016498;28;20033;-72
2022/01/08 01:07:15;;;;;;;26.83;14.68;;;2.00;99.90;;;;;;5016395;28;20045;-73
2022/01/08 01:09:40;;;;;;;27.17;15.05;;;2.00;99.90;;;;;;5015850;28;20135;-73
2022/01/08 01:12:07;;;;;;;26.85;14.48;;;2.00;99.90;;;;;;4999284;28;20037;-73
2022/01/08 01:14:32;;;;;;;29.45;14.93;;;2.00;99.90;;;;;;5016045;28;20423;-72
2022/01/08 01:16:58;;;;;;;26.95;15.38;;;2.00;99.90;;;;;;5016030;28;20041;-72
2022/01/08 01:19:23;;;;;;;26.45;15.25;;;2.00;99.90;;;;;;5023597;28;20032;-73
2022/01/08 01:21:51;;;;;;;27.65;15.85;;;2.00;99.90;;;;;;5035866;28;20044;-73
2022/01/08 01:24:18;;;;;;;31.10;15.73;;;2.00;99.90;;;;;;5035671;28;20068;-74
2022/01/08 01:27:08;;;;;;;32.50;16.05;;;1.90;99.90;;;;;;5035393;28;20071;-72
2022/01/08 01:29:41;;;;;;;31.45;16.38;;;1.90;99.90;;;;;;5035914;28;20052;-71
2022/01/08 01:48:23;;;;;;;28.30;16.92;;;1.70;99.90;;;;;;5031099;28;20124;-72
2022/01/08 01:50:49;;;;;;;28.98;16.75;;;1.60;99.90;;;;;;5016363;28;20585;-73
2022/01/08 01:53:15;;;;;;;30.75;16.95;;;1.60;99.90;;;;;;5018849;28;20068;-73
2022/01/08 01:55:48;;;;;;;31.02;17.75;;;1.60;99.90;;;;;;5019278;28;20109;-73
2022/01/08 01:58:15;;;;;;;29.67;18.00;;;1.60;99.90;;;;;;5019239;28;20585;-72
2022/01/08 02:00:43;;;;;;;30.73;16.92;;;1.60;99.90;;;;;;5028615;28;20094;-73
2022/01/08 02:03:09;;;;;;;32.45;17.95;;;1.60;99.90;;;;;;5039385;28;20045;-72
2022/01/08 02:05:35;;;;;;;32.13;17.90;;;1.50;99.90;;;;;;5039093;28;20037;-75
2022/01/08 02:08:00;;;;;;;34.72;19.65;;;1.50;99.90;;;;;;5022621;28;20044;-73
2022/01/08 02:10:26;;;;;;;36.33;18.52;;;1.50;99.90;;;;;;5038637;28;20072;-72
2022/01/08 02:12:52;;;;;;;31.80;18.90;;;1.40;99.90;;;;;;5039479;28;20029;-74
2022/01/08 02:15:17;;;;;;;30.77;17.60;;;1.40;99.90;;;;;;5039630;28;20060;-72
2022/01/08 02:17:43;;;;;;;31.73;16.48;;;1.40;99.90;;;;;;5022847;28;20087;-73
2022/01/08 02:20:10;;;;;;;32.80;16.23;;;1.40;99.90;;;;;;5038776;28;20414;-72
2022/01/08 02:22:36;;;;;;;27.42;16.17;;;1.40;99.90;;;;;;5038618;28;20069;-73
2022/01/08 02:25:03;;;;;;;25.95;15.63;;;1.40;99.90;;;;;;5056688;28;20054;-74
2022/01/08 02:27:28;;;;;;;27.88;15.13;;;1.40;99.90;;;;;;5059002;28;20036;-72
2022/01/08 02:29:54;;;;;;;29.02;15.82;;;1.40;99.90;;;;;;5058524;28;20090;-75
2022/01/08 02:32:28;;;;;;;33.08;16.90;;;1.40;99.90;;;;;;5058762;28;20029;-73
2022/01/08 02:34:55;;;;;;;32.10;16.02;;;1.40;99.90;;;;;;5058487;28;20138;-74
2022/01/08 02:37:25;;;;;;;32.05;15.85;;;1.40;99.90;;;;;;5058356;28;20049;-73
2022/01/08 02:39:51;;;;;;;29.33;14.50;;;1.50;99.90;;;;;;5058285;28;20040;-73
2022/01/08 02:42:19;;;;;;;27.55;15.32;;;1.40;99.90;;;;;;5057945;28;20056;-73
2022/01/08 02:44:47;;;;;;;25.77;15.23;;;1.50;99.90;;;;;;5058667;28;20049;-73
2022/01/08 02:47:17;;;;;;;29.67;14.43;;;1.50;99.90;;;;;;5058027;28;20036;-73
2022/01/08 02:49:43;;;;;;;31.70;14.75;;;1.50;99.90;;;;;;5058103;28;20475;-73
2022/01/08 02:52:10;;;;;;;24.00;13.18;;;1.50;99.90;;;;;;5057729;28;20066;-72
2022/01/08 02:54:36;;;;;;;27.13;13.82;;;1.50;99.90;;;;;;5058026;28;20112;-72
2022/01/08 02:57:02;;;;;;;24.17;12.30;;;1.50;99.90;;;;;;5058318;28;20083;-76
2022/01/08 02:59:28;;;;;;;21.00;11.77;;;1.50;99.90;;;;;;5057979;28;20421;-76
2022/01/08 03:01:54;;;;;;;23.77;11.95;;;1.50;99.90;;;;;;5037902;28;20074;-75
2022/01/08 03:04:20;;;;;;;20.75;11.32;;;1.50;99.90;;;;;;5037077;28;20116;-76
2022/01/08 03:06:47;;;;;;;21.55;11.23;;;1.50;99.90;;;;;;5037632;28;20076;-72
2022/01/08 03:09:13;;;;;;;22.95;10.45;;;1.50;99.90;;;;;;5037645;28;20484;-72
2022/01/08 03:11:39;;;;;;;22.65;11.43;;;1.50;99.90;;;;;;5037504;28;20047;-72
2022/01/08 03:14:06;;;;;;;21.52;11.00;;;1.50;99.90;;;;;;5038237;28;20048;-72
2022/01/08 03:16:31;;;;;;;24.00;11.25;;;1.50;99.90;;;;;;5037888;28;20047;-72
2022/01/08 03:18:57;;;;;;;19.20;10.57;;;1.50;99.90;;;;;;5037664;28;20045;-73
2022/01/08 03:21:23;;;;;;;17.58;10.07;;;1.50;99.90;;;;;;5021125;28;20084;-74
2022/01/08 03:23:58;;;;;;;25.38;11.48;;;1.50;99.90;;;;;;5038364;28;20044;-72
2022/01/08 03:26:26;;;;;;;20.00;10.52;;;1.50;99.90;;;;;;5021414;28;20044;-73
2022/01/08 03:28:53;;;;;;;18.67;10.80;;;1.40;99.90;;;;;;5037647;28;20044;-72
2022/01/08 03:31:20;;;;;;;23.77;10.77;;;1.40;99.90;;;;;;5020966;28;20037;-73
2022/01/08 03:33:46;;;;;;;26.55;12.73;;;1.40;99.90;;;;;;5037149;28;20387;-72
2022/01/08 03:36:13;;;;;;;25.13;12.35;;;1.40;99.90;;;;;;5021238;28;20049;-72
2022/01/08 03:38:39;;;;;;;29.38;12.48;;;1.40;99.90;;;;;;5037173;28;20045;-73
2022/01/08 03:41:05;;;;;;;20.38;11.35;;;1.30;99.90;;;;;;5021405;28;20045;-73
2022/01/08 03:43:30;;;;;;;25.63;11.70;;;1.30;99.90;;;;;;5037084;28;20094;-74
2022/01/08 03:45:56;;;;;;;26.08;11.90;;;1.30;99.90;;;;;;5037355;28;20124;-74
2022/01/08 03:48:31;;;;;;;23.35;12.15;;;1.30;99.90;;;;;;5020359;28;20379;-73
2022/01/08 03:50:57;;;;;;;24.90;12.27;;;1.20;99.90;;;;;;5037855;28;20120;-72
2022/01/08 03:53:24;;;;;;;25.77;11.50;;;1.20;99.90;;;;;;5037345;28;20044;-73
2022/01/08 03:55:51;;;;;;;26.80;12.90;;;1.20;99.90;;;;;;5037293;28;20040;-73
2022/01/08 03:58:18;;;;;;;28.30;12.27;;;1.20;99.90;;;;;;5020778;28;20045;-72
2022/01/08 04:00:44;;;;;;;28.25;12.32;;;1.20;99.90;;;;;;5030037;28;20131;-76
2022/01/08 04:03:10;;;;;;;24.58;13.60;;;1.20;99.90;;;;;;5039982;28;20478;-74
2022/01/08 04:05:35;;;;;;;28.17;12.80;;;1.20;99.90;;;;;;5057049;28;20105;-73
2022/01/08 04:08:01;;;;;;;25.40;12.35;;;1.20;99.90;;;;;;5052959;28;20097;-74
2022/01/08 04:10:26;;;;;;;24.13;12.52;;;1.30;99.90;;;;;;5037413;28;20041;-72
2022/01/08 04:12:56;;;;;;;23.98;12.68;;;1.30;99.90;;;;;;5056456;28;20034;-73
2022/01/08 04:17:52;;;;;;;26.13;13.02;;;1.30;99.90;;;;;;5056267;28;20558;-76
2022/01/08 04:20:19;;;;;;;26.85;13.25;;;1.30;99.90;;;;;;5056597;28;20040;-71
2022/01/08 04:22:48;;;;;;;27.90;13.30;;;1.30;99.90;;;;;;5056322;28;20045;-72
2022/01/08 04:25:16;;;;;;;25.93;13.97;;;1.30;99.90;;;;;;5039757;28;20040;-73
2022/01/08 04:27:42;;;;;;;30.23;14.23;;;1.30;99.90;;;;;;5056374;28;20131;-72
2022/01/08 04:30:08;;;;;;;32.28;13.23;;;1.30;99.90;;;;;;5039046;28;20083;-74
2022/01/08 04:32:33;;;;;;;23.88;13.45;;;1.30;99.90;;;;;;5055657;28;20064;-72
2022/01/08 04:34:59;;;;;;;27.15;13.43;;;1.20;99.90;;;;;;5039937;28;20044;-76
2022/01/08 04:37:25;;;;;;;27.42;14.63;;;1.20;99.90;;;;;;5056389;28;20047;-72
2022/01/08 04:39:50;;;;;;;28.63;13.48;;;1.20;99.90;;;;;;5056114;28;20072;-73
2022/01/08 04:42:16;;;;;;;33.92;14.50;;;1.20;99.90;;;;;;5055915;28;20443;-75
2022/01/08 04:44:41;;;;;;;26.70;13.80;;;1.20;99.90;;;;;;5055884;28;20530;-73
2022/01/08 04:47:07;;;;;;;28.67;14.88;;;1.20;99.90;;;;;;5056840;28;20125;-74
2022/01/08 04:49:33;;;;;;;27.85;13.82;;;1.20;99.90;;;;;;5055694;28;20044;-76
2022/01/08 04:51:58;;;;;;;25.58;12.82;;;1.20;99.90;;;;;;5056087;28;20119;-73
2022/01/08 04:54:24;;;;;;;26.58;14.07;;;1.20;99.90;;;;;;5039873;28;20041;-75
2022/01/08 04:56:50;;;;;;;27.50;13.68;;;1.20;99.90;;;;;;5055892;28;20040;-73
2022/01/08 04:59:16;;;;;;;25.02;13.13;;;1.20;99.90;;;;;;5052185;28;20082;-74
2022/01/08 05:01:44;;;;;;;28.27;14.50;;;1.20;99.90;;;;;;5018450;28;20092;-73
2022/01/08 05:04:10;;;;;;;29.67;14.43;;;1.10;99.90;;;;;;5016607;28;20383;-73
2022/01/08 05:06:36;;;;;;;28.75;14.32;;;1.10;99.90;;;;;;5015973;28;20049;-75
2022/01/08 05:09:03;;;;;;;28.98;14.07;;;1.20;99.90;;;;;;5016047;28;20041;-73
2022/01/08 05:11:30;;;;;;;35.60;13.88;;;1.20;99.90;;;;;;5015947;28;20040;-73
2022/01/08 05:13:56;;;;;;;28.30;12.90;;;1.10;99.90;;;;;;5015777;28;20099;-73
2022/01/08 05:16:24;;;;;;;27.38;12.45;;;1.20;99.90;;;;;;5016259;28;20045;-74
2022/01/08 05:18:52;;;;;;;24.58;12.18;;;1.20;99.90;;;;;;5016252;28;20033;-73
2022/01/08 05:21:24;;;;;;;26.25;12.43;;;1.20;99.90;;;;;;5029680;28;20106;-73
2022/01/08 05:23:51;;;;;;;24.10;12.57;;;1.20;99.90;;;;;;5018914;28;20491;-72
2022/01/08 05:26:16;;;;;;;23.52;12.73;;;1.10;99.90;;;;;;5035052;28;20124;-76
2022/01/08 05:28:44;;;;;;;25.45;12.57;;;1.10;99.90;;;;;;5031582;28;20129;-76
2022/01/08 05:31:15;;;;;;;23.67;12.13;;;1.20;99.90;;;;;;5016133;28;20048;-73
2022/01/08 05:33:41;;;;;;;25.67;11.82;;;1.10;99.90;;;;;;5016258;28;20431;-73
2022/01/08 05:36:07;;;;;;;25.33;11.20;;;1.10;99.90;;;;;;5016087;28;20041;-73
2022/01/08 05:38:32;;;;;;;23.45;11.05;;;1.10;99.90;;;;;;4999194;28;20179;-73
2022/01/08 05:40:58;;;;;;;23.15;11.52;;;1.10;99.90;;;;;;5015645;28;20041;-73
2022/01/08 05:43:24;;;;;;;24.65;11.68;;;1.10;99.90;;;;;;5015711;28;20045;-73
2022/01/08 05:45:50;;;;;;;28.38;12.40;;;1.10;99.90;;;;;;5016372;28;20357;-73
2022/01/08 05:48:15;;;;;;;21.40;11.25;;;1.10;99.90;;;;;;5015408;28;20064;-76
2022/01/08 05:50:41;;;;;;;25.45;11.23;;;1.10;99.90;;;;;;5024676;28;20502;-73
2022/01/08 05:53:07;;;;;;;23.08;11.77;;;1.10;99.90;;;;;;5034969;28;20059;-72
2022/01/08 05:55:32;;;;;;;24.65;12.73;;;1.10;99.90;;;;;;5035317;28;20127;-75
2022/01/08 05:57:58;;;;;;;26.13;12.30;;;1.10;99.90;;;;;;5035126;28;20132;-73
2022/01/08 06:00:24;;;;;;;20.92;11.80;;;1.10;99.90;;;;;;5042173;28;20122;-74
2022/01/08 06:02:50;;;;;;;21.75;11.82;;;1.10;99.90;;;;;;5055183;28;20055;-73
2022/01/08 06:05:15;;;;;;;26.65;12.40;;;1.10;99.90;;;;;;5055123;28;20041;-73
2022/01/08 06:07:41;;;;;;;27.48;13.02;;;1.10;99.90;;;;;;5055406;28;20475;-74
2022/01/08 06:10:07;;;;;;;22.73;12.48;;;1.20;99.90;;;;;;5054986;28;20040;-73
2022/01/08 06:12:33;;;;;;;21.95;12.32;;;1.10;99.90;;;;;;5054622;28;20437;-73
2022/01/08 06:14:58;;;;;;;25.63;12.63;;;1.10;99.90;;;;;;5038576;28;20455;-73
2022/01/08 06:17:24;;;;;;;27.75;13.35;;;1.10;99.90;;;;;;5055142;28;20089;-73
2022/01/08 06:19:50;;;;;;;24.80;11.65;;;1.10;99.90;;;;;;5054385;28;20040;-73
2022/01/08 06:22:16;;;;;;;25.02;12.63;;;1.10;99.90;;;;;;5054528;28;20131;-74
2022/01/08 06:24:42;;;;;;;24.90;12.20;;;1.10;99.90;;;;;;5054527;28;20333;-73
2022/01/08 06:27:08;;;;;;;22.48;12.32;;;1.10;99.90;;;;;;5038131;28;20097;-75
2022/01/08 06:29:33;;;;;;;27.45;12.88;;;1.10;99.90;;;;;;5055184;28;20040;-73
2022/01/08 06:31:59;;;;;;;24.67;12.68;;;1.10;99.90;;;;;;5055053;28;20433;-74
2022/01/08 06:34:25;;;;;;;22.92;11.30;;;1.10;99.90;;;;;;5055026;28;20043;-75
2022/01/08 06:36:50;;;;;;;23.88;12.00;;;1.10;99.90;;;;;;5054811;28;20119;-74
2022/01/08 06:39:17;;;;;;;22.38;12.63;;;1.10;99.90;;;;;;5056256;28;20040;-73
2022/01/08 06:41:42;;;;;;;24.83;12.48;;;1.10;99.90;;;;;;5041560;28;20052;-73
2022/01/08 06:44:08;;;;;;;24.80;12.05;;;1.00;99.90;;;;;;5059081;28;20041;-73
2022/01/08 06:46:34;;;;;;;24.60;11.98;;;1.00;99.90;;;;;;5058442;28;20041;-74
2022/01/08 06:49:00;;;;;;;21.85;12.05;;;1.00;99.90;;;;;;5057993;28;20043;-72
2022/01/08 06:51:26;;;;;;;25.00;12.23;;;1.00;99.90;;;;;;5058150;28;20093;-73
2022/01/08 06:53:52;;;;;;;23.23;12.07;;;1.00;99.90;;;;;;5057961;28;20387;-76
2022/01/08 06:56:18;;;;;;;20.58;12.00;;;0.90;99.90;;;;;;5041344;28;20466;-74
2022/01/08 06:58:45;;;;;;;23.75;11.50;;;0.90;99.90;;;;;;5058279;28;20060;-73
2022/01/08 07:01:10;;;;;;;23.27;11.10;;;0.90;99.90;;;;;;5027877;28;20094;-73
2022/01/08 07:03:36;;;;;;;25.10;11.73;;;0.90;99.90;;;;;;5038109;28;20040;-76
2022/01/08 07:06:02;;;;;;;24.90;11.93;;;0.90;99.90;;;;;;5038260;28;20063;-76
2022/01/08 07:08:28;;;;;;;26.27;12.30;;;0.90;99.90;;;;;;5021521;28;20037;-75
2022/01/08 07:10:54;;;;;;;22.40;12.35;;;0.90;99.90;;;;;;5037642;28;20040;-73
2022/01/08 07:13:20;;;;;;;25.80;11.40;;;0.90;99.90;;;;;;5037876;28;20041;-73
2022/01/08 07:15:45;;;;;;;26.15;12.48;;;0.90;99.90;;;;;;5037693;28;20044;-73
2022/01/08 07:18:11;;;;;;;23.95;11.43;;;0.90;99.90;;;;;;5034301;28;20045;-74
2022/01/08 07:20:37;;;;;;;26.90;12.38;;;0.90;99.90;;;;;;5017867;28;20037;-72
2022/01/08 07:23:03;;;;;;;26.08;11.52;;;0.90;99.90;;;;;;5030212;28;20056;-73
2022/01/08 07:25:28;;;;;;;26.67;11.40;;;0.90;99.90;;;;;;5037255;28;20352;-74
2022/01/08 07:27:54;;;;;;;23.25;12.23;;;0.90;99.90;;;;;;5037675;28;20037;-74
2022/01/08 07:30:20;;;;;;;24.52;12.65;;;0.80;99.90;;;;;;5021194;28;20049;-80
2022/01/08 07:32:48;;;;;;;23.85;12.68;;;0.80;99.90;;;;;;5020935;28;20045;-73
2022/01/08 07:35:16;;;;;;;24.45;12.43;;;0.80;99.90;;;;;;5021074;28;20049;-74
2022/01/08 07:37:43;;;;;;;30.30;13.55;;;0.80;99.90;;;;;;5020800;28;20489;-77
2022/01/08 07:40:11;;;;;;;22.45;12.77;;;0.80;99.90;;;;;;5020621;28;20045;-75
2022/01/08 07:42:37;;;;;;;23.80;12.05;;;0.80;99.90;;;;;;5037299;28;20152;-75
2022/01/08 07:45:03;;;;;;;22.25;12.50;;;0.80;99.90;;;;;;5037400;28;20040;-74
2022/01/08 07:47:29;;;;;;;27.55;13.63;;;0.80;99.90;;;;;;4993235;28;20058;-74
2022/01/08 07:49:55;;;;;;;30.13;12.70;;;0.70;99.90;;;;;;4976943;28;20046;-75
2022/01/08 07:52:20;;;;;;;29.42;13.98;;;0.70;99.90;;;;;;4977366;28;20421;-73
2022/01/08 07:54:46;;;;;;;24.95;13.00;;;0.70;99.90;;;;;;4977092;28;20081;-73
2022/01/08 07:57:12;;;;;;;27.23;12.82;;;0.70;99.90;;;;;;4977797;28;20113;-73
2022/01/08 07:59:37;;;;;;;21.25;11.95;;;0.70;99.90;;;;;;4977645;28;20385;-73
2022/01/08 08:02:03;;;;;;;25.80;12.48;;;0.70;99.90;;;;;;5013353;28;20053;-73
2022/01/08 08:04:29;;;;;;;29.10;11.98;;;0.70;99.90;;;;;;4996520;28;20156;-73
2022/01/08 08:06:55;;;;;;;26.65;12.32;;;0.70;99.90;;;;;;4980037;28;20089;-74
2022/01/08 08:09:20;;;;;;;21.83;11.68;;;0.70;99.90;;;;;;4995362;28;20480;-73
2022/01/08 08:11:46;;;;;;;25.63;12.57;;;0.70;99.90;;;;;;4977613;28;20077;-74
2022/01/08 08:14:12;;;;;;;25.02;12.70;;;0.70;99.90;;;;;;5013170;28;20053;-74
2022/01/08 08:16:37;;;;;;;26.05;12.75;;;0.70;99.90;;;;;;4980000;28;20436;-76
2022/01/08 08:19:04;;;;;;;23.95;11.80;;;0.70;99.90;;;;;;5026052;28;20049;-74
2022/01/08 08:21:30;;;;;;;20.13;13.10;;;0.70;99.90;;;;;;5036682;28;20041;-75
2022/01/08 08:23:56;;;;;;;24.90;12.68;;;0.70;99.90;;;;;;5036214;28;20403;-74
2022/01/08 08:26:22;;;;;;;27.55;13.43;;;0.70;99.90;;;;;;5036873;28;20464;-74
2022/01/08 08:28:47;;;;;;;28.25;13.95;;;0.70;99.90;;;;;;5036380;28;20059;-74
2022/01/08 08:31:13;;;;;;;23.73;13.35;;;0.70;99.90;;;;;;5036568;28;20041;-74
2022/01/08 08:33:39;;;;;;;31.27;14.05;;;0.70;99.90;;;;;;5036509;28;20091;-74
2022/01/08 08:36:06;;;;;;;27.30;13.75;;;0.70;99.90;;;;;;5035961;28;20045;-74
2022/01/08 08:38:31;;;;;;;27.45;14.35;;;0.80;99.90;;;;;;5019569;28;20052;-74
2022/01/08 08:40:57;;;;;;;24.15;13.02;;;0.70;99.90;;;;;;5036306;28;20037;-75
2022/01/08 08:43:23;;;;;;;28.63;13.20;;;0.80;99.90;;;;;;5036259;28;20422;-74
2022/01/08 08:45:50;;;;;;;30.80;13.60;;;0.80;99.90;;;;;;5036060;28;20087;-73
2022/01/08 08:48:16;;;;;;;27.95;14.00;;;0.80;99.90;;;;;;5019712;28;20581;-73
2022/01/08 08:50:43;;;;;;;28.52;14.75;;;0.80;99.90;;;;;;5036002;28;20518;-74
2022/01/08 08:53:08;;;;;;;31.02;13.90;;;0.80;99.90;;;;;;5019000;28;20525;-74
2022/01/08 08:55:34;;;;;;;32.58;14.38;;;0.90;99.90;;;;;;5019553;28;20474;-74
2022/01/08 08:58:00;;;;;;;27.83;14.40;;;0.90;99.90;;;;;;5035940;28;20037;-75
2022/01/08 09:00:25;;;;;;;24.63;15.70;;;0.90;99.90;;;;;;5036419;28;20550;-75
2022/01/08 09:02:51;;;;;;;27.83;15.20;;;1.00;99.90;;;;;;5018676;28;20064;-73
2022/01/08 09:05:17;;;;;;;27.77;14.65;;;1.00;99.90;;;;;;5035832;28;20041;-74
2022/01/08 09:07:44;;;;;;;25.60;15.35;;;1.10;99.90;;;;;;5032006;28;20049;-73
2022/01/08 09:10:11;;;;;;;24.48;14.27;;;1.10;99.90;;;;;;5000526;28;20081;-74
2022/01/08 09:12:38;;;;;;;27.83;15.32;;;1.10;99.90;;;;;;5016095;28;20049;-76
2022/01/08 09:15:06;;;;;;;32.53;16.15;;;1.10;99.90;;;;;;4999492;28;20475;-74
2022/01/08 09:17:33;;;;;;;27.55;15.65;;;1.20;99.90;;;;;;5016248;28;20069;-74
2022/01/08 09:19:58;;;;;;;29.40;16.70;;;1.20;99.90;;;;;;5015634;28;20464;-76
2022/01/08 09:22:25;;;;;;;29.52;15.90;;;1.20;99.90;;;;;;4999192;28;20052;-73
2022/01/08 09:24:52;;;;;;;28.95;15.70;;;1.20;99.90;;;;;;5016258;28;20105;-73
2022/01/08 09:27:17;;;;;;;30.30;16.58;;;1.30;99.90;;;;;;5015853;28;20049;-73
2022/01/08 09:29:43;;;;;;;33.83;17.02;;;1.40;99.90;;;;;;5016046;28;20052;-72
2022/01/08 09:32:09;;;;;;;28.17;15.63;;;1.40;99.90;;;;;;4999585;28;20044;-75
2022/01/08 09:34:36;;;;;;;27.65;16.50;;;1.40;99.90;;;;;;5015765;28;20105;-74
2022/01/08 09:37:04;;;;;;;31.00;15.90;;;1.50;99.90;;;;;;5027985;28;20036;-73
2022/01/08 09:39:30;;;;;;;28.73;15.23;;;1.50;99.90;;;;;;5036133;28;20131;-75
2022/01/08 09:41:55;;;;;;;31.48;16.20;;;1.50;99.90;;;;;;5019554;28;20132;-73
2022/01/08 09:44:21;;;;;;;27.30;15.98;;;1.60;99.90;;;;;;5035639;28;20390;-73
2022/01/08 09:46:47;;;;;;;31.10;16.60;;;1.60;99.90;;;;;;5035356;28;20079;-73
2022/01/08 09:49:13;;;;;;;29.83;15.85;;;1.60;99.90;;;;;;5035286;28;20101;-73
2022/01/08 09:51:39;;;;;;;33.28;17.02;;;1.70;99.90;;;;;;5017887;28;20379;-72
2022/01/08 09:54:04;;;;;;;29.20;15.77;;;1.70;99.90;;;;;;5034986;28;20048;-75
2022/01/08 09:56:32;;;;;;;31.55;15.75;;;1.70;99.90;;;;;;5035608;28;20084;-73
2022/01/08 09:58:59;;;;;;;28.65;16.00;;;1.70;99.90;;;;;;5034218;28;20111;-72
2022/01/08 10:01:35;;;;;;;29.52;15.52;;;1.80;99.90;;;;;;5047802;28;20102;-72
2022/01/08 10:04:04;;;;;;;28.92;16.33;;;1.80;99.90;;;;;;5038325;28;20076;-74
2022/01/08 10:06:35;;;;;;;26.70;15.40;;;1.80;99.90;;;;;;5055724;28;20048;-74
2022/01/08 10:09:02;;;;;;;29.52;16.45;;;1.90;99.90;;;;;;5055438;28;20044;-73
2022/01/08 10:11:28;;;;;;;27.05;15.48;;;2.00;99.90;;;;;;5055164;28;20048;-73
2022/01/08 10:14:06;;;;;;;30.70;16.20;;;2.00;99.90;;;;;;5057658;28;20437;-74
2022/01/08 10:19:19;;;;;;;31.73;15.88;;;2.10;99.90;;;;;;5058984;28;20050;-73
2022/01/08 10:21:46;;;;;;;26.88;15.18;;;2.10;99.90;;;;;;5042315;28;20532;-73
2022/01/08 10:24:18;;;;;;;28.55;15.05;;;2.10;99.90;;;;;;5042166;28;20040;-76
2022/01/08 10:26:45;;;;;;;26.10;14.95;;;2.20;99.90;;;;;;5042020;28;20139;-74
2022/01/08 10:29:16;;;;;;;23.63;15.45;;;2.20;99.90;;;;;;5058051;28;20036;-73
2022/01/08 10:31:44;;;;;;;29.17;15.05;;;2.30;99.90;;;;;;5059168;28;20090;-76
2022/01/08 10:34:13;;;;;;;21.95;14.05;;;2.30;99.90;;;;;;5059025;28;20075;-73
2022/01/08 10:36:47;;;;;;;28.10;15.25;;;2.40;99.90;;;;;;5042002;28;20040;-74
2022/01/08 10:39:35;;;;;;;30.40;15.25;;;2.40;99.90;;;;;;5058531;28;20049;-75
2022/01/08 10:42:13;;;;;;;27.25;15.70;;;2.50;99.90;;;;;;5058523;28;20047;-75
2022/01/08 10:44:39;;;;;;;23.67;14.02;;;2.50;99.90;;;;;;5058573;28;20076;-74
2022/01/08 10:47:06;;;;;;;24.65;13.88;;;2.50;99.90;;;;;;5058657;28;20032;-73
2022/01/08 10:49:32;;;;;;;26.83;14.73;;;2.60;99.90;;;;;;5058157;28;20068;-74
2022/01/08 10:52:00;;;;;;;28.10;14.65;;;2.60;99.90;;;;;;5041418;28;20079;-76
2022/01/08 10:54:28;;;;;;;21.98;14.55;;;2.60;99.90;;;;;;5058940;28;20055;-73
2022/01/08 10:56:56;;;;;;;26.65;14.95;;;2.60;99.90;;;;;;5054732;28;20052;-75
2022/01/08 10:59:24;;;;;;;32.55;14.98;;;2.60;99.90;;;;;;5038165;28;20127;-73
2022/01/08 11:02:07;;;;;;;22.55;13.80;;;2.60;99.90;;;;;;5019189;28;20053;-71
2022/01/08 11:04:41;;;;;;;21.23;14.35;;;2.70;99.90;;;;;;5021452;28;20039;-72
2022/01/08 11:07:09;;;;;;;26.55;14.23;;;2.80;99.90;;;;;;5021813;28;20044;-75
2022/01/08 11:09:37;;;;;;;26.58;14.80;;;2.90;99.90;;;;;;5038201;28;20132;-74
2022/01/08 11:12:05;;;;;;;25.10;14.25;;;2.90;99.90;;;;;;5037958;28;20033;-72
2022/01/08 11:17:29;;;;;;;28.00;15.68;;;3.00;99.90;;;;;;5038224;28;20191;-75
2022/01/08 11:20:08;;;;;;;26.60;14.60;;;3.00;99.90;;;;;;5037751;28;20145;-72
2022/01/08 11:22:36;;;;;;;26.13;15.18;;;3.10;99.90;;;;;;5037862;28;20497;-73
2022/01/08 11:25:07;;;;;;;26.17;15.32;;;3.10;99.90;;;;;;5036771;28;20499;-73
2022/01/08 11:27:52;;;;;;;25.00;15.25;;;3.10;99.90;;;;;;5037054;28;20542;-72
2022/01/08 11:30:24;;;;;;;27.85;16.33;;;3.10;99.90;;;;;;5037775;28;20044;-72
2022/01/08 11:32:52;;;;;;;29.05;17.33;;;3.10;99.90;;;;;;5037185;28;20543;-73
2022/01/08 11:35:20;;;;;;;34.97;17.17;;;3.10;99.90;;;;;;5037480;28;20383;-71
2022/01/08 11:37:49;;;;;;;33.03;18.20;;;3.00;99.90;;;;;;5020637;28;20040;-72
2022/01/08 11:40:17;;;;;;;31.35;18.30;;;3.00;99.90;;;;;;5037770;28;20047;-72
2022/01/08 11:42:43;;;;;;;29.80;18.88;;;3.00;99.90;;;;;;5037499;28;20037;-72
2022/01/08 11:45:13;;;;;;;29.65;16.80;;;3.10;99.90;;;;;;5021039;28;20116;-75
2022/01/08 11:47:46;;;;;;;28.98;19.27;;;3.10;99.90;;;;;;5037511;28;20032;-72
2022/01/08 11:50:17;;;;;;;36.38;19.60;;;3.10;99.90;;;;;;5034083;28;20040;-73
2022/01/08 11:52:43;;;;;;;32.92;20.27;;;3.20;99.90;;;;;;5036904;28;20049;-73
2022/01/08 11:55:09;;;;;;;32.05;21.80;;;3.20;99.90;;;;;;5037240;28;20131;-72
2022/01/08 11:57:35;;;;;;;36.17;20.85;;;3.20;99.90;;;;;;5020894;28;20144;-73
2022/01/08 12:00:02;;;;;;;34.50;21.70;;;3.20;99.90;;;;;;5040593;28;20132;-74
2022/01/08 12:02:44;;;;;;;36.20;22.70;;;3.20;99.90;;;;;;5057126;28;20056;-73
2022/01/08 12:05:12;;;;;;;33.45;22.02;;;3.20;99.90;;;;;;5032655;28;20146;-74
2022/01/08 12:07:43;;;;;;;33.33;22.10;;;3.20;99.90;;;;;;5004033;28;20558;-72
2022/01/08 12:10:18;;;;;;;31.50;22.92;;;3.20;99.90;;;;;;5014766;28;20135;-72
2022/01/08 12:12:48;;;;;;;34.13;22.42;;;3.30;99.90;;;;;;5015394;28;20045;-72
2022/01/08 12:15:15;;;;;;;33.15;22.23;;;3.30;99.90;;;;;;5010259;28;20053;-75
2022/01/08 12:17:57;;;;;;;34.80;22.40;;;3.30;99.90;;;;;;5005697;28;20044;-71
2022/01/08 12:20:50;;;;;;;37.33;23.05;;;3.30;99.90;;;;;;5013739;28;20053;-72
2022/01/08 12:23:35;;;;;;;34.03;21.10;;;3.30;99.90;;;;;;5011972;28;20095;-73
2022/01/08 12:26:26;;;;;;;36.65;21.95;;;3.20;99.90;;;;;;5006029;28;20511;-74
2022/01/08 12:28:54;;;;;;;36.15;22.17;;;3.20;99.90;;;;;;5015138;28;20165;-71
2022/01/08 12:31:25;;;;;;;42.17;23.73;;;3.20;99.90;;;;;;5014875;28;20053;-74
2022/01/08 12:34:29;;;;;;;39.92;23.38;;;3.20;99.90;;;;;;5020013;28;20048;-75
2022/01/08 12:36:55;;;;;;;41.92;24.85;;;3.20;99.90;;;;;;5049094;28;20135;-74
2022/01/08 12:39:43;;;;;;;43.22;25.98;;;3.10;99.90;;;;;;5039064;28;20127;-73
2022/01/08 12:42:24;;;;;;;43.83;26.02;;;3.10;99.90;;;;;;5055880;28;20044;-72
2022/01/08 12:45:00;;;;;;;46.63;27.48;;;3.10;99.90;;;;;;5054923;28;20048;-76
2022/01/08 12:47:39;;;;;;;54.97;31.23;;;3.10;99.90;;;;;;5055265;28;20036;-74
2022/01/08 12:50:33;;;;;;;50.03;29.13;;;3.10;99.90;;;;;;5038882;28;20052;-72
2022/01/08 12:53:05;;;;;;;48.42;28.23;;;3.20;99.90;;;;;;5035880;28;20048;-72
2022/01/08 12:55:35;;;;;;;47.72;28.08;;;3.10;99.90;;;;;;5054895;28;20048;-75
2022/01/08 12:58:10;;;;;;;46.83;27.58;;;3.10;99.90;;;;;;5055251;28;20036;-72
2022/01/08 13:00:51;;;;;;;46.78;27.90;;;3.20;99.90;;;;;;5042425;28;20053;-73
2022/01/08 13:03:24;;;;;;;45.95;28.38;;;3.20;99.90;;;;;;5023499;28;20434;-72